createdAt,value
2023-05-11T00:00:34.335Z,13.40
2023-05-11T00:03:02.466Z,13.40
2023-05-11T00:05:30.271Z,13.43
2023-05-11T00:07:57.891Z,13.44
2023-05-11T00:10:25.475Z,13.46
2023-05-11T00:12:53.141Z,13.47
2023-05-11T00:15:21.145Z,13.46
2023-05-11T00:17:48.813Z,13.45
2023-05-11T00:20:17.022Z,13.42
2023-05-11T00:22:45.095Z,13.41
2023-05-11T00:25:12.699Z,13.39
2023-05-11T00:27:41.703Z,13.37
2023-05-11T00:30:10.292Z,13.35
2023-05-11T00:32:37.957Z,13.36
2023-05-11T00:35:05.756Z,13.39
2023-05-11T00:37:33.479Z,13.38
2023-05-11T00:40:01.482Z,13.40
2023-05-11T00:42:31.180Z,13.40
2023-05-11T00:44:58.744Z,13.36
2023-05-11T00:47:26.299Z,13.39
2023-05-11T00:49:53.971Z,13.39
2023-05-11T00:52:21.943Z,13.36
2023-05-11T00:54:49.729Z,13.35
2023-05-11T00:57:17.346Z,13.32
2023-05-11T00:59:44.958Z,13.30
2023-05-11T01:02:12.610Z,13.28
2023-05-11T01:04:40.264Z,13.27
2023-05-11T01:07:08.064Z,13.28
2023-05-11T01:09:35.645Z,13.28
2023-05-11T01:12:03.266Z,13.26
2023-05-11T01:14:30.814Z,13.27
2023-05-11T01:16:58.917Z,13.27
2023-05-11T01:19:26.598Z,13.27
2023-05-11T01:21:54.692Z,13.26
2023-05-11T01:24:22.740Z,13.27
2023-05-11T01:26:50.378Z,13.27
2023-05-11T01:29:18.334Z,13.27
2023-05-11T01:31:46.169Z,13.30
2023-05-11T01:34:13.856Z,13.32
2023-05-11T01:36:41.411Z,13.33
2023-05-11T01:39:09.042Z,13.36
2023-05-11T01:41:37.015Z,13.39
2023-05-11T01:44:04.576Z,13.37
2023-05-11T01:46:32.763Z,13.37
2023-05-11T01:49:00.771Z,13.35
2023-05-11T01:51:28.430Z,13.34
2023-05-11T01:53:56.412Z,13.34
2023-05-11T01:56:24.633Z,13.33
2023-05-11T01:58:52.283Z,13.34
2023-05-11T02:01:19.938Z,13.34
2023-05-11T02:03:47.692Z,13.35
2023-05-11T02:06:15.516Z,13.37
2023-05-11T02:08:44.042Z,13.38
2023-05-11T02:11:11.680Z,13.42
2023-05-11T02:13:39.408Z,13.44
2023-05-11T02:16:07.063Z,13.47
2023-05-11T02:18:35.184Z,13.46
2023-05-11T02:21:02.833Z,13.47
2023-05-11T02:23:30.401Z,13.47
2023-05-11T02:25:58.150Z,13.46
2023-05-11T02:28:25.895Z,13.49
2023-05-11T02:30:54.236Z,13.49
2023-05-11T02:33:22.285Z,13.48
2023-05-11T02:35:49.841Z,13.48
2023-05-11T02:38:17.400Z,13.47
2023-05-11T02:40:45.013Z,13.47
2023-05-11T02:43:13.063Z,13.45
2023-05-11T02:45:41.213Z,13.44
2023-05-11T02:48:08.946Z,13.44
2023-05-11T02:50:36.500Z,13.42
2023-05-11T02:53:04.571Z,13.42
2023-05-11T02:55:32.558Z,13.45
2023-05-11T02:58:00.245Z,13.46
2023-05-11T03:00:27.883Z,13.47
2023-05-11T03:02:55.634Z,13.47
2023-05-11T03:05:24.354Z,13.47
2023-05-11T03:07:52.401Z,13.47
2023-05-11T03:10:20.417Z,13.47
2023-05-11T03:12:48.254Z,13.45
2023-05-11T03:15:16.248Z,13.44
2023-05-11T03:17:43.909Z,13.45
2023-05-11T03:20:11.719Z,13.45
2023-05-11T03:22:39.428Z,13.45
2023-05-11T03:25:07.086Z,13.44
2023-05-11T03:27:34.701Z,13.42
2023-05-11T03:30:02.452Z,13.41
2023-05-11T03:32:30.977Z,13.40
2023-05-11T03:34:58.521Z,13.37
2023-05-11T03:37:26.131Z,13.35
2023-05-11T03:39:53.710Z,13.34
2023-05-11T03:42:21.282Z,13.32
2023-05-11T03:44:49.242Z,13.29
2023-05-11T03:47:17.120Z,13.28
2023-05-11T03:49:44.746Z,13.27
2023-05-11T03:52:12.332Z,13.28
2023-05-11T03:54:39.952Z,13.29
2023-05-11T03:57:07.955Z,13.31
2023-05-11T03:59:37.036Z,13.34
2023-05-11T04:02:04.741Z,13.35
2023-05-11T04:04:32.402Z,13.38
2023-05-11T04:06:59.942Z,13.39
2023-05-11T04:09:27.916Z,13.40
2023-05-11T04:11:55.605Z,13.42
2023-05-11T04:14:23.177Z,13.42
2023-05-11T04:16:50.809Z,13.42
2023-05-11T04:19:18.402Z,13.42
2023-05-11T04:21:47.232Z,13.42
2023-05-11T04:24:14.963Z,13.45
2023-05-11T04:26:42.502Z,13.45
2023-05-11T04:29:10.107Z,13.46
2023-05-11T04:31:37.761Z,13.48
2023-05-11T04:34:06.175Z,13.49
2023-05-11T04:36:34.051Z,13.48
2023-05-11T04:39:01.660Z,13.48
2023-05-11T04:41:29.206Z,13.47
2023-05-11T04:43:57.153Z,13.45
2023-05-11T04:46:25.138Z,13.45
2023-05-11T04:48:52.753Z,13.44
2023-05-11T04:51:20.519Z,13.44
2023-05-11T04:53:48.168Z,13.44
2023-05-11T04:56:15.828Z,13.42
2023-05-11T04:58:43.833Z,13.40
2023-05-11T05:01:11.515Z,13.37
2023-05-11T05:03:39.148Z,13.36
2023-05-11T05:06:06.731Z,13.36
2023-05-11T05:08:34.384Z,13.35
2023-05-11T05:11:02.360Z,13.34
2023-05-11T05:13:29.960Z,13.31
2023-05-11T05:15:57.790Z,13.29
2023-05-11T05:18:25.381Z,13.28
2023-05-11T05:20:53.014Z,13.25
2023-05-11T05:23:21.070Z,13.27
2023-05-11T05:25:48.701Z,13.30
2023-05-11T05:28:16.840Z,13.32
2023-05-11T05:30:44.547Z,13.36
2023-05-11T05:33:12.247Z,13.41
2023-05-11T05:35:40.332Z,13.45
2023-05-11T05:38:08.380Z,13.48
2023-05-11T05:40:39.486Z,13.51
2023-05-11T05:43:18.838Z,13.53
2023-05-11T05:45:46.878Z,13.56
2023-05-11T05:48:14.740Z,13.60
2023-05-11T05:50:42.503Z,13.65
2023-05-11T05:53:10.160Z,13.69
2023-05-11T05:55:37.804Z,13.75
2023-05-11T05:58:05.841Z,13.81
2023-05-11T06:00:33.589Z,13.85
2023-05-11T06:03:01.280Z,13.91
2023-05-11T06:05:29.101Z,13.93
2023-05-11T06:08:09.212Z,13.95
2023-05-11T06:10:39.165Z,13.98
2023-05-11T06:13:06.830Z,14.01
2023-05-11T06:15:34.480Z,14.06
2023-05-11T06:18:02.371Z,14.12
2023-05-11T06:20:30.055Z,14.21
2023-05-11T06:22:58.233Z,14.30
2023-05-11T06:25:25.948Z,14.39
2023-05-11T06:27:53.697Z,14.46
2023-05-11T06:30:21.851Z,14.52
2023-05-11T06:32:49.685Z,14.56
2023-05-11T06:35:17.934Z,14.58
2023-05-11T06:37:45.657Z,14.60
2023-05-11T06:40:13.767Z,14.63
2023-05-11T06:42:41.500Z,14.66
2023-05-11T06:45:09.231Z,14.68
2023-05-11T06:47:37.513Z,14.69
2023-05-11T06:50:05.301Z,14.74
2023-05-11T06:52:33.242Z,14.78
2023-05-11T06:55:01.965Z,14.81
2023-05-11T06:57:29.645Z,14.82
2023-05-11T06:59:58.203Z,14.86
2023-05-11T07:02:26.010Z,14.89
2023-05-11T07:04:55.355Z,14.93
2023-05-11T07:07:23.136Z,14.99
2023-05-11T07:09:50.959Z,15.05
2023-05-11T07:12:19.189Z,15.12
2023-05-11T07:14:47.400Z,15.19
2023-05-11T07:17:15.302Z,15.19
2023-05-11T07:19:43.138Z,15.20
2023-05-11T07:22:12.189Z,15.20
2023-05-11T07:24:42.097Z,15.24
2023-05-11T07:27:09.925Z,15.27
2023-05-11T07:29:37.720Z,15.31
2023-05-11T07:32:05.652Z,15.37
2023-05-11T07:34:33.471Z,15.40
2023-05-11T07:37:02.322Z,15.41
2023-05-11T07:39:30.413Z,15.41
2023-05-11T07:41:58.215Z,15.42
2023-05-11T07:44:26.480Z,15.44
2023-05-11T07:46:55.362Z,15.48
2023-05-11T07:49:31.299Z,15.50
2023-05-11T07:52:07.658Z,15.54
2023-05-11T07:54:35.477Z,15.55
2023-05-11T07:57:04.201Z,15.59
2023-05-11T07:59:32.834Z,15.59
2023-05-11T08:02:00.773Z,15.57
2023-05-11T08:04:28.542Z,15.56
2023-05-11T08:06:56.867Z,15.55
2023-05-11T08:09:24.828Z,15.53
2023-05-11T08:11:54.132Z,15.51
2023-05-11T08:14:22.225Z,15.50
2023-05-11T08:16:50.689Z,15.52
2023-05-11T08:19:18.871Z,15.60
2023-05-11T08:21:47.565Z,15.72
2023-05-11T08:24:15.877Z,15.83
2023-05-11T08:26:43.769Z,15.95
2023-05-11T08:29:11.748Z,16.05
2023-05-11T08:31:39.626Z,16.09
2023-05-11T08:34:17.701Z,16.16
2023-05-11T08:36:47.946Z,16.26
2023-05-11T08:39:24.670Z,16.32
2023-05-11T08:42:00.999Z,16.38
2023-05-11T08:44:29.294Z,16.39
2023-05-11T08:47:14.395Z,16.38
2023-05-11T08:49:45.891Z,16.38
2023-05-11T08:52:13.632Z,16.40
2023-05-11T08:54:41.471Z,16.42
2023-05-11T08:57:10.436Z,16.47
2023-05-11T08:59:38.474Z,16.57
2023-05-11T09:02:06.450Z,16.74
2023-05-11T09:04:34.320Z,16.88
2023-05-11T09:07:02.448Z,17.05
2023-05-11T09:09:30.792Z,17.25
2023-05-11T09:11:58.678Z,17.49
2023-05-11T09:14:27.733Z,17.72
2023-05-11T09:16:55.607Z,18.02
2023-05-11T09:19:23.485Z,18.32
2023-05-11T09:21:52.791Z,18.48
2023-05-11T09:24:20.610Z,18.64
2023-05-11T09:26:48.775Z,18.81
2023-05-11T09:29:16.731Z,18.99
2023-05-11T09:31:44.692Z,19.17
2023-05-11T09:34:13.659Z,19.24
2023-05-11T09:36:41.330Z,19.33
2023-05-11T09:39:15.339Z,19.45
2023-05-11T09:41:44.090Z,19.66
2023-05-11T09:44:11.933Z,19.91
2023-05-11T09:46:40.327Z,20.17
2023-05-11T09:49:08.252Z,20.36
2023-05-11T09:51:35.918Z,20.57
2023-05-11T09:54:04.836Z,20.77
2023-05-11T09:56:33.744Z,20.97
2023-05-11T09:59:02.093Z,21.26
2023-05-11T10:01:30.292Z,21.51
2023-05-11T10:04:08.841Z,21.71
2023-05-11T10:06:41.521Z,21.88
2023-05-11T10:09:10.009Z,21.88
2023-05-11T10:11:37.848Z,21.79
2023-05-11T10:14:05.596Z,21.86
2023-05-11T10:16:33.783Z,22.10
2023-05-11T10:19:02.204Z,22.51
2023-05-11T10:21:30.400Z,22.75
2023-05-11T10:23:58.893Z,22.66
2023-05-11T10:26:26.856Z,22.48
2023-05-11T10:28:54.616Z,22.52
2023-05-11T10:31:24.541Z,22.43
2023-05-11T10:33:53.199Z,22.18
2023-05-11T10:36:21.757Z,21.90
2023-05-11T10:38:49.846Z,21.51
2023-05-11T10:41:17.876Z,21.07
2023-05-11T10:43:46.049Z,20.68
2023-05-11T10:46:17.750Z,20.40
2023-05-11T10:48:45.688Z,20.18
2023-05-11T10:51:13.552Z,19.98
2023-05-11T10:53:41.452Z,19.88
2023-05-11T10:56:10.419Z,19.83
2023-05-11T10:58:39.349Z,19.81
2023-05-11T11:01:07.315Z,19.78
2023-05-11T11:03:35.241Z,19.76
2023-05-11T11:06:03.135Z,19.73
2023-05-11T11:08:31.284Z,19.75
2023-05-11T11:10:59.957Z,19.79
2023-05-11T11:13:27.839Z,19.99
2023-05-11T11:15:55.867Z,20.07
2023-05-11T11:18:23.930Z,20.14
2023-05-11T11:20:53.091Z,20.21
2023-05-11T11:23:21.615Z,20.45
2023-05-11T11:25:49.490Z,21.00
2023-05-11T11:28:17.443Z,21.53
2023-05-11T11:30:45.705Z,22.09
2023-05-11T11:33:13.707Z,22.49
2023-05-11T11:35:42.112Z,22.72
2023-05-11T11:38:10.783Z,22.70
2023-05-11T11:40:49.610Z,22.43
2023-05-11T11:43:20.023Z,22.17
2023-05-11T11:45:48.264Z,22.18
2023-05-11T11:48:16.339Z,22.30
2023-05-11T11:50:44.339Z,22.47
2023-05-11T11:53:12.700Z,22.51
2023-05-11T11:55:40.402Z,22.39
2023-05-11T11:58:08.958Z,22.25
2023-05-11T12:00:36.844Z,21.96
2023-05-11T12:03:04.879Z,21.63
2023-05-11T12:05:32.859Z,21.36
2023-05-11T12:08:00.760Z,21.16
2023-05-11T12:10:29.556Z,21.04
2023-05-11T12:13:00.015Z,20.92
2023-05-11T12:15:28.195Z,20.88
2023-05-11T12:17:56.083Z,20.87
2023-05-11T12:20:24.143Z,20.88
2023-05-11T12:22:52.322Z,20.84
2023-05-11T12:25:20.343Z,20.77
2023-05-11T12:27:48.464Z,20.73
2023-05-11T12:30:16.453Z,20.73
2023-05-11T12:32:44.289Z,20.79
2023-05-11T12:35:13.883Z,20.82
2023-05-11T12:37:41.875Z,20.81
2023-05-11T12:40:10.570Z,20.75
2023-05-11T12:42:38.540Z,20.66
2023-05-11T12:45:06.351Z,20.52
2023-05-11T12:47:34.955Z,20.37
2023-05-11T12:50:03.762Z,20.14
2023-05-11T12:52:31.599Z,19.85
2023-05-11T12:55:01.220Z,19.59
2023-05-11T12:57:29.216Z,19.42
2023-05-11T12:59:57.732Z,19.33
2023-05-11T13:02:25.558Z,19.26
2023-05-11T13:04:53.554Z,19.17
2023-05-11T13:07:22.274Z,19.02
2023-05-11T13:09:50.149Z,18.82
2023-05-11T13:12:19.791Z,18.64
2023-05-11T13:14:47.915Z,18.47
2023-05-11T13:17:16.371Z,18.32
2023-05-11T13:19:44.690Z,18.19
2023-05-11T13:22:12.703Z,18.08
2023-05-11T13:24:41.304Z,18.01
2023-05-11T13:27:09.222Z,17.94
2023-05-11T13:29:39.771Z,17.85
2023-05-11T13:32:07.685Z,17.78
2023-05-11T13:34:37.455Z,17.70
2023-05-11T13:37:06.034Z,17.59
2023-05-11T13:39:34.152Z,17.52
2023-05-11T13:42:02.069Z,17.45
2023-05-11T13:44:29.830Z,17.38
2023-05-11T13:46:57.704Z,17.30
2023-05-11T13:49:26.012Z,17.21
2023-05-11T13:51:55.630Z,17.12
2023-05-11T13:54:23.450Z,17.02
2023-05-11T13:56:51.363Z,16.95
2023-05-11T13:59:19.362Z,16.89
2023-05-11T14:01:49.540Z,16.84
2023-05-11T14:04:17.775Z,16.80
2023-05-11T14:06:45.966Z,16.77
2023-05-11T14:09:13.801Z,16.74
2023-05-11T14:11:41.632Z,16.72
2023-05-11T14:14:10.213Z,16.72
2023-05-11T14:16:38.097Z,16.71
2023-05-11T14:19:06.107Z,16.69
2023-05-11T14:21:34.077Z,16.67
2023-05-11T14:24:10.480Z,16.67
2023-05-11T14:26:40.386Z,16.67
2023-05-11T14:29:08.492Z,16.66
2023-05-11T14:31:37.102Z,16.64
2023-05-11T14:34:05.338Z,16.63
2023-05-11T14:36:33.264Z,16.63
2023-05-11T14:39:02.125Z,16.61
2023-05-11T14:41:30.015Z,16.61
2023-05-11T14:43:57.916Z,16.61
2023-05-11T14:46:26.842Z,16.62
2023-05-11T14:48:55.083Z,16.65
2023-05-11T14:51:23.465Z,16.66
2023-05-11T14:53:51.313Z,16.65
2023-05-11T14:56:19.241Z,16.66
2023-05-11T14:58:47.555Z,16.68
2023-05-11T15:01:15.553Z,16.70
2023-05-11T15:03:44.276Z,16.75
2023-05-11T15:06:12.230Z,16.80
2023-05-11T15:08:40.087Z,16.84
2023-05-11T15:11:07.973Z,16.87
2023-05-11T15:13:35.854Z,16.86
2023-05-11T15:16:04.323Z,16.86
2023-05-11T15:18:32.238Z,16.86
2023-05-11T15:21:02.150Z,16.88
2023-05-11T15:23:30.072Z,16.90
2023-05-11T15:25:59.066Z,16.90
2023-05-11T15:28:28.343Z,16.91
2023-05-11T15:30:56.079Z,16.89
2023-05-11T15:33:24.153Z,16.90
2023-05-11T15:35:51.971Z,16.89
2023-05-11T15:38:19.892Z,16.88
2023-05-11T15:40:48.377Z,16.85
2023-05-11T15:43:16.495Z,16.81
2023-05-11T15:45:44.532Z,16.78
2023-05-11T15:48:12.555Z,16.78
2023-05-11T15:50:40.704Z,16.75
2023-05-11T15:53:09.246Z,16.73
2023-05-11T15:55:37.342Z,16.71
2023-05-11T15:58:05.273Z,16.68
2023-05-11T16:00:33.005Z,16.66
2023-05-11T16:03:01.874Z,16.64
2023-05-11T16:05:30.675Z,16.57
2023-05-11T16:08:00.232Z,16.53
2023-05-11T16:10:28.136Z,16.48
2023-05-11T16:12:58.232Z,16.44
2023-05-11T16:15:26.689Z,16.42
2023-05-11T16:17:55.307Z,16.39
2023-05-11T16:20:23.084Z,16.38
2023-05-11T16:22:50.887Z,16.35
2023-05-11T16:25:19.108Z,16.34
2023-05-11T16:27:46.937Z,16.34
2023-05-11T16:30:24.148Z,16.29
2023-05-11T16:32:52.898Z,16.26
2023-05-11T16:35:20.980Z,16.22
2023-05-11T16:37:49.320Z,16.18
2023-05-11T16:40:19.788Z,16.15
2023-05-11T16:42:48.673Z,16.07
2023-05-11T16:45:16.753Z,16.00
2023-05-11T16:47:45.639Z,15.93
2023-05-11T16:50:14.998Z,15.86
2023-05-11T16:52:43.708Z,15.82
2023-05-11T16:55:12.116Z,15.76
2023-05-11T16:57:39.976Z,15.72
2023-05-11T17:00:07.767Z,15.67
2023-05-11T17:02:35.808Z,15.63
2023-05-11T17:05:06.092Z,15.61
2023-05-11T17:07:34.027Z,15.58
2023-05-11T17:10:02.025Z,15.57
2023-05-11T17:12:29.890Z,15.55
2023-05-11T17:14:58.125Z,15.55
2023-05-11T17:17:28.039Z,15.54
2023-05-11T17:19:56.002Z,15.55
2023-05-11T17:22:24.026Z,15.56
2023-05-11T17:24:52.114Z,15.58
2023-05-11T17:27:20.027Z,15.61
2023-05-11T17:29:48.413Z,15.60
2023-05-11T17:32:16.554Z,15.58
2023-05-11T17:34:44.762Z,15.54
2023-05-11T17:37:23.917Z,15.50
2023-05-11T17:39:59.670Z,15.45
2023-05-11T17:42:27.670Z,15.42
2023-05-11T17:44:55.530Z,15.38
2023-05-11T17:47:23.452Z,15.35
2023-05-11T17:49:51.451Z,15.31
2023-05-11T17:52:20.355Z,15.27
2023-05-11T17:54:48.340Z,15.25
2023-05-11T17:57:16.286Z,15.22
2023-05-11T17:59:44.527Z,15.19
2023-05-11T18:02:13.077Z,15.18
2023-05-11T18:04:42.595Z,15.16
2023-05-11T18:07:10.418Z,15.13
2023-05-11T18:09:38.565Z,15.12
2023-05-11T18:12:06.537Z,15.11
2023-05-11T18:14:34.472Z,15.10
2023-05-11T18:17:03.044Z,15.10
2023-05-11T18:19:30.905Z,15.08
2023-05-11T18:21:59.156Z,15.06
2023-05-11T18:24:27.304Z,15.03
2023-05-11T18:26:55.156Z,15.00
2023-05-11T18:29:23.346Z,14.99
2023-05-11T18:31:51.203Z,14.97
2023-05-11T18:34:19.135Z,14.95
2023-05-11T18:36:47.044Z,14.95
2023-05-11T18:39:16.305Z,14.96
2023-05-11T18:41:44.847Z,14.95
2023-05-11T18:44:14.356Z,14.96
2023-05-11T18:46:42.647Z,14.95
2023-05-11T18:49:10.759Z,14.93
2023-05-11T18:51:38.849Z,14.93
2023-05-11T18:54:07.476Z,14.91
2023-05-11T18:56:35.471Z,14.89
2023-05-11T18:59:03.362Z,14.86
2023-05-11T19:01:46.617Z,14.84
2023-05-11T19:04:18.019Z,14.81
2023-05-11T19:06:45.921Z,14.77
2023-05-11T19:09:14.245Z,14.73
2023-05-11T19:11:42.168Z,14.70
2023-05-11T19:14:10.666Z,14.66
2023-05-11T19:16:39.186Z,14.63
2023-05-11T19:19:07.570Z,14.61
2023-05-11T19:21:40.331Z,14.58
2023-05-11T19:24:08.151Z,14.56
2023-05-11T19:26:36.040Z,14.54
2023-05-11T19:29:06.149Z,14.52
2023-05-11T19:31:34.011Z,14.50
2023-05-11T19:34:02.220Z,14.51
2023-05-11T19:36:30.279Z,14.49
2023-05-11T19:38:58.166Z,14.49
2023-05-11T19:41:26.455Z,14.48
2023-05-11T19:43:54.342Z,14.45
2023-05-11T19:46:22.608Z,14.44
2023-05-11T19:48:50.576Z,14.42
2023-05-11T19:51:19.215Z,14.39
2023-05-11T19:53:47.708Z,14.37
2023-05-11T19:56:15.674Z,14.35
2023-05-11T19:58:43.605Z,14.32
2023-05-11T20:01:11.370Z,14.30
2023-05-11T20:03:39.293Z,14.29
2023-05-11T20:06:08.127Z,14.28
2023-05-11T20:08:35.935Z,14.27
2023-05-11T20:11:05.288Z,14.25
2023-05-11T20:13:33.233Z,14.23
2023-05-11T20:16:00.967Z,14.23
2023-05-11T20:18:29.221Z,14.22
2023-05-11T20:20:57.235Z,14.23
2023-05-11T20:23:25.067Z,14.23
2023-05-11T20:25:52.924Z,14.25
2023-05-11T20:28:21.788Z,14.25
2023-05-11T20:30:51.680Z,14.26
2023-05-11T20:35:52.465Z,14.28
2023-05-11T20:38:21.103Z,14.29
2023-05-11T20:40:49.007Z,14.33
2023-05-11T20:43:17.578Z,14.34
2023-05-11T20:45:45.679Z,14.37
2023-05-11T20:48:13.459Z,14.38
2023-05-11T20:50:41.273Z,14.39
2023-05-11T20:53:09.574Z,14.41
2023-05-11T20:55:37.843Z,14.42
2023-05-11T20:58:05.778Z,14.44
2023-05-11T21:00:33.933Z,14.45
2023-05-11T21:03:01.727Z,14.45
2023-05-11T21:05:29.542Z,14.45
2023-05-11T21:07:57.864Z,14.45
2023-05-11T21:10:25.608Z,14.45
2023-05-11T21:12:53.383Z,14.44
2023-05-11T21:15:21.495Z,14.45
2023-05-11T21:17:49.282Z,14.46
2023-05-11T21:20:18.057Z,14.46
2023-05-11T21:22:45.973Z,14.48
2023-05-11T21:25:13.825Z,14.52
2023-05-11T21:27:42.083Z,14.55
2023-05-11T21:30:10.224Z,14.56
2023-05-11T21:32:38.475Z,14.58
2023-05-11T21:35:06.290Z,14.61
2023-05-11T21:37:35.692Z,14.62
2023-05-11T21:40:03.785Z,14.60
2023-05-11T21:42:34.972Z,14.60
2023-05-11T21:45:03.082Z,14.59
2023-05-11T21:47:30.818Z,14.57
2023-05-11T21:49:58.727Z,14.57
2023-05-11T21:52:26.415Z,14.56
2023-05-11T21:54:54.074Z,14.53
2023-05-11T21:57:22.248Z,14.50
2023-05-11T21:59:51.338Z,14.48
2023-05-11T22:02:19.114Z,14.44
2023-05-11T22:04:47.415Z,14.40
2023-05-11T22:07:15.168Z,14.40
2023-05-11T22:09:43.239Z,14.40
2023-05-11T22:12:10.920Z,14.40
2023-05-11T22:14:38.692Z,14.41
2023-05-11T22:17:06.365Z,14.41
2023-05-11T22:19:34.127Z,14.40
2023-05-11T22:22:03.653Z,14.40
2023-05-11T22:24:31.551Z,14.40
2023-05-11T22:26:59.583Z,14.42
2023-05-11T22:29:27.269Z,14.42
2023-05-11T22:31:54.971Z,14.41
2023-05-11T22:34:23.235Z,14.41
2023-05-11T22:36:50.846Z,14.40
2023-05-11T22:39:18.933Z,14.41
2023-05-11T22:41:46.658Z,14.40
2023-05-11T22:44:15.176Z,14.42
2023-05-11T22:46:43.147Z,14.42
2023-05-11T22:49:10.843Z,14.44
2023-05-11T22:51:38.513Z,14.45
2023-05-11T22:54:06.082Z,14.44
2023-05-11T22:56:33.819Z,14.46
2023-05-11T22:59:01.653Z,14.47
2023-05-11T23:01:29.343Z,14.50
2023-05-11T23:03:57.047Z,14.53
2023-05-11T23:06:24.801Z,14.57
2023-05-11T23:08:52.355Z,14.59
2023-05-11T23:11:20.452Z,14.60
2023-05-11T23:13:48.358Z,14.62
2023-05-11T23:16:15.897Z,14.63
2023-05-11T23:18:43.827Z,14.65
2023-05-11T23:21:11.733Z,14.65
2023-05-11T23:23:42.968Z,14.64
2023-05-11T23:26:10.771Z,14.61
2023-05-11T23:28:38.646Z,14.61
2023-05-11T23:31:06.232Z,14.60
2023-05-11T23:33:33.818Z,14.59
2023-05-11T23:36:02.642Z,14.56
2023-05-11T23:38:30.223Z,14.55
2023-05-11T23:40:57.879Z,14.54
2023-05-11T23:43:25.999Z,14.52
2023-05-11T23:45:53.642Z,14.51
2023-05-11T23:48:21.554Z,14.48
2023-05-11T23:50:49.682Z,14.47
2023-05-11T23:53:17.278Z,14.45
2023-05-11T23:55:44.862Z,14.42
2023-05-11T23:58:12.409Z,14.42
